createdAt,value
2022-08-03T00:01:49.571Z,16.01
2022-08-03T00:04:16.064Z,15.99
2022-08-03T00:06:43.269Z,15.96
2022-08-03T00:09:10.325Z,15.93
2022-08-03T00:11:37.040Z,16.03
2022-08-03T00:14:07.603Z,16.07
2022-08-03T00:16:34.340Z,16.14
2022-08-03T00:19:02.169Z,16.11
2022-08-03T00:21:29.262Z,15.99
2022-08-03T00:23:56.201Z,15.97
2022-08-03T00:26:22.970Z,15.93
2022-08-03T00:28:50.457Z,15.81
2022-08-03T00:31:26.477Z,15.79
2022-08-03T00:34:04.999Z,15.80
2022-08-03T00:36:32.538Z,15.70
2022-08-03T00:38:58.947Z,15.74
2022-08-03T00:41:25.341Z,15.62
2022-08-03T00:43:51.747Z,15.71
2022-08-03T00:46:21.726Z,15.73
2022-08-03T00:48:53.244Z,15.76
2022-08-03T00:51:21.596Z,15.67
2022-08-03T00:53:48.150Z,15.59
2022-08-03T00:56:16.061Z,15.50
2022-08-03T00:58:45.038Z,15.57
2022-08-03T01:01:12.500Z,15.61
2022-08-03T01:03:39.614Z,15.53
2022-08-03T01:06:20.019Z,15.47
2022-08-03T01:08:58.550Z,15.54
2022-08-03T01:11:36.941Z,15.59
2022-08-03T01:14:51.838Z,15.64
2022-08-03T01:17:40.088Z,15.61
2022-08-03T01:20:11.631Z,15.59
2022-08-03T01:23:16.262Z,15.58
2022-08-03T01:26:06.108Z,15.62
2022-08-03T01:28:54.637Z,15.44
2022-08-03T01:31:26.230Z,15.33
2022-08-03T01:34:01.741Z,15.43
2022-08-03T01:36:35.319Z,15.30
2022-08-03T01:39:09.205Z,15.18
2022-08-03T01:41:42.450Z,15.18
2022-08-03T01:44:28.580Z,15.02
2022-08-03T01:47:00.812Z,15.04
2022-08-03T01:49:30.544Z,15.19
2022-08-03T01:52:04.284Z,15.12
2022-08-03T01:54:40.721Z,14.94
2022-08-03T01:57:08.505Z,15.03
2022-08-03T01:59:36.321Z,14.98
2022-08-03T02:02:27.725Z,15.00
2022-08-03T02:04:55.659Z,14.94
2022-08-03T02:07:23.576Z,14.93
2022-08-03T02:09:52.534Z,14.90
2022-08-03T02:12:20.784Z,14.76
2022-08-03T02:14:49.447Z,14.92
2022-08-03T02:17:16.575Z,14.88
2022-08-03T02:19:43.892Z,14.89
2022-08-03T02:22:12.943Z,14.76
2022-08-03T02:24:40.003Z,14.75
2022-08-03T02:27:14.922Z,14.78
2022-08-03T02:29:42.520Z,14.83
2022-08-03T02:32:12.573Z,14.80
2022-08-03T02:34:42.205Z,14.77
2022-08-03T02:37:11.960Z,14.75
2022-08-03T02:39:41.006Z,14.67
2022-08-03T02:42:09.719Z,14.68
2022-08-03T02:44:41.549Z,14.58
2022-08-03T02:47:11.665Z,14.62
2022-08-03T02:49:51.025Z,14.56
2022-08-03T02:52:21.542Z,14.68
2022-08-03T02:54:51.434Z,14.69
2022-08-03T02:57:20.501Z,14.70
2022-08-03T02:59:49.928Z,14.56
2022-08-03T03:02:18.503Z,14.56
2022-08-03T03:05:01.316Z,14.62
2022-08-03T03:07:46.878Z,14.52
2022-08-03T03:10:22.142Z,14.47
2022-08-03T03:12:54.988Z,14.43
2022-08-03T03:15:24.649Z,14.49
2022-08-03T03:17:54.557Z,14.58
2022-08-03T03:20:29.332Z,14.47
2022-08-03T03:22:59.564Z,14.30
2022-08-03T03:25:26.526Z,14.41
2022-08-03T03:27:53.260Z,14.39
2022-08-03T03:30:19.687Z,14.40
2022-08-03T03:32:46.473Z,14.40
2022-08-03T03:35:14.855Z,14.38
2022-08-03T03:37:41.259Z,14.24
2022-08-03T03:40:09.650Z,14.15
2022-08-03T03:42:38.670Z,14.22
2022-08-03T03:45:06.743Z,14.20
2022-08-03T03:47:34.201Z,14.19
2022-08-03T03:50:02.113Z,14.16
2022-08-03T03:52:28.565Z,14.17
2022-08-03T03:55:00.485Z,14.11
2022-08-03T03:57:27.856Z,14.07
2022-08-03T03:59:54.391Z,14.04
2022-08-03T04:02:20.952Z,14.10
2022-08-03T04:05:05.747Z,14.04
2022-08-03T04:08:03.011Z,14.00
2022-08-03T04:10:52.813Z,13.73
2022-08-03T04:13:21.707Z,13.99
2022-08-03T04:15:50.270Z,14.07
2022-08-03T04:18:19.388Z,14.15
2022-08-03T04:20:48.773Z,14.14
2022-08-03T04:23:19.596Z,14.31
2022-08-03T04:25:49.020Z,14.45
2022-08-03T04:28:30.125Z,14.43
2022-08-03T04:31:03.286Z,14.36
2022-08-03T04:33:32.434Z,14.45
2022-08-03T04:36:03.690Z,14.25
2022-08-03T04:38:36.574Z,14.35
2022-08-03T04:41:03.565Z,14.35
2022-08-03T04:43:32.760Z,14.45
2022-08-03T04:46:01.108Z,14.51
2022-08-03T04:48:28.446Z,14.59
2022-08-03T04:50:55.453Z,14.62
2022-08-03T04:53:23.264Z,14.70
2022-08-03T04:55:49.787Z,14.79
2022-08-03T04:58:17.767Z,14.86
2022-08-03T05:00:45.847Z,14.80
2022-08-03T05:03:19.450Z,14.99
2022-08-03T05:05:50.893Z,15.05
2022-08-03T05:08:20.535Z,15.07
2022-08-03T05:10:54.128Z,15.24
2022-08-03T05:13:20.553Z,15.32
2022-08-03T05:15:46.982Z,15.42
2022-08-03T05:18:14.317Z,15.48
2022-08-03T05:20:41.258Z,15.53
2022-08-03T05:23:07.820Z,15.53
2022-08-03T05:25:34.321Z,15.80
2022-08-03T05:28:00.919Z,15.92
2022-08-03T05:30:33.671Z,16.06
2022-08-03T05:33:02.549Z,16.15
2022-08-03T05:35:55.643Z,16.29
2022-08-03T05:38:28.139Z,16.51
2022-08-03T05:40:57.593Z,16.63
2022-08-03T05:43:44.182Z,16.61
2022-08-03T05:46:12.441Z,16.81
2022-08-03T05:48:40.032Z,16.81
2022-08-03T05:51:07.945Z,16.92
2022-08-03T05:53:35.447Z,17.19
2022-08-03T05:56:13.238Z,17.38
2022-08-03T05:58:45.893Z,17.90
2022-08-03T06:01:12.454Z,18.54
2022-08-03T06:03:39.727Z,19.78
2022-08-03T06:06:06.453Z,19.81
2022-08-03T06:08:32.995Z,20.10
2022-08-03T06:10:59.607Z,20.95
2022-08-03T06:13:25.983Z,20.90
2022-08-03T06:15:52.429Z,20.48
2022-08-03T06:18:19.072Z,21.14
2022-08-03T06:20:45.531Z,21.64
2022-08-03T06:23:16.080Z,22.42
2022-08-03T06:25:44.752Z,22.08
2022-08-03T06:28:35.375Z,22.91
2022-08-03T06:30:59.335Z,23.76
2022-08-03T06:34:31.161Z,22.83
2022-08-03T06:36:13.681Z,23.27
2022-08-03T06:38:40.845Z,22.84
2022-08-03T06:41:07.980Z,22.76
2022-08-03T06:43:38.026Z,22.79
2022-08-03T06:46:24.839Z,24.90
2022-08-03T06:48:52.933Z,25.05
2022-08-03T06:51:19.586Z,24.15
2022-08-03T06:53:45.970Z,25.10
2022-08-03T06:56:12.367Z,25.38
2022-08-03T06:58:38.748Z,26.14
2022-08-03T07:01:05.274Z,26.08
2022-08-03T07:03:31.783Z,26.06
2022-08-03T07:05:59.744Z,26.09
2022-08-03T07:08:34.306Z,26.14
2022-08-03T07:11:01.954Z,25.96
2022-08-03T07:13:28.355Z,27.46
2022-08-03T07:15:56.586Z,28.07
2022-08-03T07:18:29.087Z,28.57
2022-08-03T07:20:59.706Z,28.61
2022-08-03T07:23:26.085Z,29.71
2022-08-03T07:25:52.831Z,29.11
2022-08-03T07:28:19.943Z,28.96
2022-08-03T07:30:46.937Z,29.22
2022-08-03T07:33:14.177Z,28.69
2022-08-03T07:35:43.270Z,29.35
2022-08-03T07:38:09.771Z,29.74
2022-08-03T07:40:36.273Z,29.46
2022-08-03T07:43:03.721Z,28.81
2022-08-03T07:45:31.639Z,30.51
2022-08-03T07:47:58.947Z,30.39
2022-08-03T07:50:26.486Z,31.58
2022-08-03T07:52:54.001Z,31.01
2022-08-03T07:55:25.273Z,31.57
2022-08-03T07:58:19.153Z,31.49
2022-08-03T08:00:48.945Z,32.35
2022-08-03T08:03:15.406Z,33.14
2022-08-03T08:05:41.867Z,33.13
2022-08-03T08:08:09.025Z,34.51
2022-08-03T08:10:35.927Z,32.76
2022-08-03T08:13:04.023Z,32.58
2022-08-03T08:15:31.580Z,32.25
2022-08-03T08:17:59.944Z,32.33
2022-08-03T08:20:34.988Z,32.57
2022-08-03T08:23:22.312Z,32.53
2022-08-03T08:25:54.103Z,32.35
2022-08-03T08:28:32.908Z,34.30
2022-08-03T08:31:00.651Z,33.42
2022-08-03T08:33:37.344Z,33.35
2022-08-03T08:36:15.558Z,33.36
2022-08-03T08:38:44.527Z,34.42
2022-08-03T08:41:12.916Z,33.37
2022-08-03T08:43:40.064Z,35.55
2022-08-03T08:46:10.294Z,34.40
2022-08-03T08:48:41.804Z,33.88
2022-08-03T08:51:09.872Z,35.80
2022-08-03T08:53:37.402Z,35.37
2022-08-03T08:56:05.303Z,35.14
2022-08-03T08:58:37.977Z,34.78
2022-08-03T09:01:05.787Z,34.74
2022-08-03T09:03:34.230Z,33.84
2022-08-03T09:06:02.632Z,35.36
2022-08-03T09:08:32.038Z,34.45
2022-08-03T09:10:59.502Z,34.70
2022-08-03T09:13:26.193Z,34.88
2022-08-03T09:16:14.894Z,34.86
2022-08-03T09:18:54.381Z,34.61
2022-08-03T09:21:34.314Z,33.93
2022-08-03T09:24:05.655Z,35.48
2022-08-03T09:26:38.630Z,33.89
2022-08-03T09:29:14.562Z,36.51
2022-08-03T09:31:46.734Z,36.89
2022-08-03T09:34:16.425Z,37.47
2022-08-03T09:36:46.367Z,37.38
2022-08-03T09:39:18.730Z,36.89
2022-08-03T09:41:48.268Z,37.17
2022-08-03T09:44:24.158Z,37.99
2022-08-03T09:46:56.304Z,35.93
2022-08-03T09:49:25.245Z,35.91
2022-08-03T09:52:37.909Z,37.28
2022-08-03T09:54:39.214Z,38.01
2022-08-03T09:57:05.712Z,35.36
2022-08-03T09:59:34.042Z,35.80
2022-08-03T10:02:01.900Z,37.49
2022-08-03T10:04:29.214Z,38.16
2022-08-03T10:07:10.022Z,35.97
2022-08-03T10:09:37.621Z,37.62
2022-08-03T10:12:09.605Z,34.80
2022-08-03T10:14:37.356Z,37.47
2022-08-03T10:17:03.993Z,38.58
2022-08-03T10:19:30.464Z,38.47
2022-08-03T10:22:03.084Z,38.26
2022-08-03T10:24:30.844Z,37.03
2022-08-03T10:27:03.902Z,37.53
2022-08-03T10:29:42.765Z,39.00
2022-08-03T10:32:19.809Z,40.01
2022-08-03T10:34:49.808Z,38.39
2022-08-03T10:37:17.875Z,38.29
2022-08-03T10:39:54.552Z,39.54
2022-08-03T10:42:24.103Z,35.94
2022-08-03T10:45:14.945Z,37.35
2022-08-03T10:47:42.057Z,38.63
2022-08-03T10:50:09.760Z,38.32
2022-08-03T10:52:40.997Z,34.97
2022-08-03T10:55:53.527Z,37.87
2022-08-03T10:58:53.460Z,35.16
2022-08-03T11:01:58.061Z,35.41
2022-08-03T11:04:26.597Z,37.73
2022-08-03T11:07:19.770Z,37.23
2022-08-03T11:09:48.905Z,37.63
2022-08-03T11:12:32.306Z,38.56
2022-08-03T11:15:02.259Z,38.18
2022-08-03T11:17:29.046Z,38.06
2022-08-03T11:19:56.845Z,38.97
2022-08-03T11:22:25.369Z,38.65
2022-08-03T11:24:54.084Z,39.54
2022-08-03T11:27:28.676Z,37.73
2022-08-03T11:30:26.561Z,37.11
2022-08-03T11:32:57.945Z,36.90
2022-08-03T11:35:33.759Z,37.87
2022-08-03T11:38:03.426Z,38.59
2022-08-03T11:40:36.208Z,38.87
2022-08-03T11:43:21.643Z,37.93
2022-08-03T11:46:28.590Z,36.94
2022-08-03T11:49:09.089Z,35.21
2022-08-03T11:51:41.071Z,35.42
2022-08-03T11:54:10.110Z,35.34
2022-08-03T11:56:48.421Z,35.11
2022-08-03T11:59:19.881Z,35.37
2022-08-03T12:01:47.911Z,36.02
2022-08-03T12:04:16.254Z,36.94
2022-08-03T12:06:58.384Z,38.99
2022-08-03T12:09:25.803Z,38.69
2022-08-03T12:11:59.784Z,37.00
2022-08-03T12:14:49.019Z,36.95
2022-08-03T12:17:14.093Z,38.51
2022-08-03T12:19:44.876Z,36.02
2022-08-03T12:22:11.564Z,37.13
2022-08-03T12:24:46.784Z,36.99
2022-08-03T12:27:23.264Z,37.44
2022-08-03T12:29:57.215Z,36.99
2022-08-03T12:32:26.274Z,36.84
2022-08-03T12:34:52.767Z,36.93
2022-08-03T12:37:22.571Z,36.01
2022-08-03T12:40:02.891Z,36.60
2022-08-03T12:42:39.489Z,37.44
2022-08-03T12:45:27.563Z,37.35
2022-08-03T12:47:58.767Z,39.13
2022-08-03T12:50:31.503Z,37.89
2022-08-03T12:53:04.527Z,36.88
2022-08-03T12:55:56.610Z,39.77
2022-08-03T12:58:36.085Z,38.52
2022-08-03T13:01:10.154Z,36.43
2022-08-03T13:03:49.696Z,37.14
2022-08-03T13:06:19.691Z,37.02
2022-08-03T13:08:47.964Z,37.77
2022-08-03T13:11:57.838Z,37.22
2022-08-03T13:14:19.952Z,37.25
2022-08-03T13:16:47.563Z,35.98
2022-08-03T13:19:15.248Z,35.65
2022-08-03T13:21:53.814Z,36.13
2022-08-03T13:24:29.759Z,37.45
2022-08-03T13:26:57.022Z,36.72
2022-08-03T13:29:23.848Z,36.04
2022-08-03T13:31:51.287Z,35.53
2022-08-03T13:34:22.993Z,34.73
2022-08-03T13:39:57.993Z,34.75
2022-08-03T13:42:23.058Z,35.34
2022-08-03T13:44:49.436Z,34.96
2022-08-03T13:47:16.189Z,35.41
2022-08-03T13:49:42.907Z,35.50
2022-08-03T13:52:29.602Z,35.67
2022-08-03T13:54:56.037Z,35.31
2022-08-03T13:58:06.616Z,35.30
2022-08-03T14:00:09.761Z,35.39
2022-08-03T14:02:36.507Z,35.31
2022-08-03T14:05:03.022Z,35.04
2022-08-03T14:07:29.432Z,35.16
2022-08-03T14:09:56.871Z,34.16
2022-08-03T14:12:23.366Z,33.87
2022-08-03T14:14:49.787Z,34.21
2022-08-03T14:17:16.732Z,33.69
2022-08-03T14:19:53.015Z,34.41
2022-08-03T14:22:21.142Z,33.95
2022-08-03T14:24:49.375Z,33.41
2022-08-03T14:27:16.188Z,33.87
2022-08-03T14:29:42.601Z,33.70
2022-08-03T14:32:11.640Z,33.49
2022-08-03T14:34:39.300Z,34.18
2022-08-03T14:37:05.916Z,34.08
2022-08-03T14:42:21.565Z,34.22
2022-08-03T14:44:48.055Z,34.20
2022-08-03T14:47:14.821Z,33.87
2022-08-03T14:50:31.386Z,33.92
2022-08-03T14:52:28.274Z,33.65
2022-08-03T14:54:54.762Z,33.77
2022-08-03T14:57:21.984Z,33.69
2022-08-03T14:59:56.267Z,33.83
2022-08-03T15:02:24.425Z,34.18
2022-08-03T15:04:51.513Z,34.27
2022-08-03T15:07:18.707Z,34.29
2022-08-03T15:09:45.259Z,34.09
2022-08-03T15:12:11.848Z,34.31
2022-08-03T15:14:41.457Z,34.12
2022-08-03T15:17:07.934Z,34.45
2022-08-03T15:20:03.796Z,34.25
2022-08-03T15:22:25.227Z,34.41
2022-08-03T15:25:02.257Z,33.77
2022-08-03T15:27:29.157Z,34.12
2022-08-03T15:30:05.485Z,33.89
2022-08-03T15:32:36.422Z,33.88
2022-08-03T15:35:03.448Z,33.64
2022-08-03T15:37:30.260Z,33.51
2022-08-03T15:39:59.642Z,33.35
2022-08-03T15:42:30.913Z,33.07
2022-08-03T15:44:57.326Z,33.48
2022-08-03T15:47:23.765Z,33.54
2022-08-03T15:49:50.569Z,33.28
2022-08-03T15:52:16.992Z,33.52
2022-08-03T15:54:43.394Z,33.42
2022-08-03T15:57:09.819Z,33.25
2022-08-03T15:59:36.334Z,33.30
2022-08-03T16:02:05.993Z,33.33
2022-08-03T16:04:33.493Z,33.46
2022-08-03T16:07:00.095Z,33.52
2022-08-03T16:09:43.408Z,33.13
2022-08-03T16:12:11.819Z,33.21
2022-08-03T16:14:52.377Z,33.12
2022-08-03T16:17:20.549Z,32.98
2022-08-03T16:19:47.500Z,32.79
2022-08-03T16:22:14.359Z,33.01
2022-08-03T16:24:42.240Z,32.86
2022-08-03T16:27:17.444Z,32.87
2022-08-03T16:29:58.021Z,32.69
2022-08-03T16:32:24.433Z,32.79
2022-08-03T16:34:50.835Z,32.81
2022-08-03T16:37:37.744Z,32.82
2022-08-03T16:40:17.676Z,32.93
2022-08-03T16:42:46.252Z,32.87
2022-08-03T16:45:13.395Z,32.78
2022-08-03T16:47:39.942Z,32.77
2022-08-03T16:50:15.501Z,32.87
2022-08-03T16:52:47.031Z,32.84
2022-08-03T16:55:15.314Z,32.79
2022-08-03T16:57:58.569Z,32.73
2022-08-03T17:00:33.792Z,32.63
2022-08-03T17:03:04.448Z,32.64
2022-08-03T17:05:46.854Z,32.57
2022-08-03T17:08:14.415Z,32.56
2022-08-03T17:10:45.403Z,32.70
2022-08-03T17:13:21.668Z,32.68
2022-08-03T17:15:57.987Z,32.58
2022-08-03T17:18:33.986Z,32.62
2022-08-03T17:21:05.804Z,32.55
2022-08-03T17:23:46.502Z,32.59
2022-08-03T17:26:21.323Z,32.57
2022-08-03T17:28:57.996Z,32.54
2022-08-03T17:31:31.826Z,32.40
2022-08-03T17:34:00.612Z,32.26
2022-08-03T17:36:47.581Z,32.33
2022-08-03T17:39:16.946Z,31.90
2022-08-03T17:41:48.967Z,32.35
2022-08-03T17:44:28.915Z,32.32
2022-08-03T17:47:01.564Z,32.24
2022-08-03T17:49:27.966Z,32.03
2022-08-03T17:52:01.410Z,31.98
2022-08-03T17:55:55.831Z,32.04
2022-08-03T17:58:06.453Z,31.83
2022-08-03T18:00:59.650Z,31.50
2022-08-03T18:03:57.950Z,31.46
2022-08-03T18:06:31.195Z,31.01
2022-08-03T18:10:03.731Z,30.96
2022-08-03T18:11:58.133Z,30.84
2022-08-03T18:14:27.408Z,30.55
2022-08-03T18:17:01.532Z,30.21
2022-08-03T18:20:02.008Z,29.85
2022-08-03T18:22:20.952Z,29.86
2022-08-03T18:24:52.946Z,29.59
2022-08-03T18:27:21.160Z,29.69
2022-08-03T18:29:50.332Z,29.67
2022-08-03T18:32:20.062Z,29.24
2022-08-03T18:34:54.156Z,29.23
2022-08-03T18:37:25.115Z,29.11
2022-08-03T18:39:55.758Z,28.65
2022-08-03T18:42:26.282Z,28.66
2022-08-03T18:44:56.206Z,28.49
2022-08-03T18:47:50.581Z,28.18
2022-08-03T18:50:30.532Z,27.86
2022-08-03T18:53:16.337Z,27.78
2022-08-03T18:56:08.633Z,27.67
2022-08-03T18:58:52.397Z,27.43
2022-08-03T19:02:00.185Z,27.22
2022-08-03T19:04:34.190Z,26.86
2022-08-03T19:07:24.892Z,26.78
2022-08-03T19:09:59.670Z,26.71
2022-08-03T19:12:53.079Z,26.71
2022-08-03T19:15:36.652Z,26.43
2022-08-03T19:18:08.830Z,26.40
2022-08-03T19:20:37.834Z,26.22
2022-08-03T19:23:04.340Z,26.04
2022-08-03T19:25:40.599Z,26.13
2022-08-03T19:28:09.163Z,25.87
2022-08-03T19:30:39.592Z,25.81
2022-08-03T19:33:11.332Z,25.60
2022-08-03T19:35:55.051Z,25.64
2022-08-03T19:38:28.146Z,25.43
2022-08-03T19:40:59.551Z,25.35
2022-08-03T19:43:33.032Z,25.27
2022-08-03T19:46:06.883Z,24.98
2022-08-03T19:48:36.572Z,25.04
2022-08-03T19:51:12.246Z,25.05
2022-08-03T19:53:45.122Z,25.00
2022-08-03T19:56:16.688Z,24.76
2022-08-03T19:58:43.598Z,24.75
2022-08-03T20:01:19.824Z,24.72
2022-08-03T20:03:49.155Z,24.67
2022-08-03T20:06:19.256Z,24.45
2022-08-03T20:08:45.888Z,24.49
2022-08-03T20:11:18.038Z,24.43
2022-08-03T20:13:48.309Z,24.38
2022-08-03T20:16:14.981Z,24.17
2022-08-03T20:18:43.330Z,24.11
2022-08-03T20:21:15.722Z,23.75
2022-08-03T20:24:01.726Z,23.91
2022-08-03T20:26:30.648Z,23.96
2022-08-03T20:29:09.197Z,23.87
2022-08-03T20:31:37.742Z,23.68
2022-08-03T20:34:06.251Z,23.86
2022-08-03T20:36:33.358Z,23.84
2022-08-03T20:39:00.208Z,23.54
2022-08-03T20:41:26.869Z,23.55
2022-08-03T20:43:53.537Z,23.61
2022-08-03T20:46:32.745Z,23.55
2022-08-03T20:49:06.130Z,23.50
2022-08-03T20:51:49.727Z,23.49
2022-08-03T20:54:28.755Z,23.46
2022-08-03T20:56:57.998Z,22.93
2022-08-03T20:59:36.569Z,22.79
2022-08-03T21:02:19.701Z,22.94
2022-08-03T21:04:56.474Z,22.87
2022-08-03T21:07:45.636Z,22.80
2022-08-03T21:10:15.660Z,22.76
2022-08-03T21:16:11.708Z,22.44
2022-08-03T21:18:42.474Z,22.49
2022-08-03T21:21:10.690Z,22.52
2022-08-03T21:23:48.704Z,22.33
2022-08-03T21:26:24.194Z,22.36
2022-08-03T21:28:53.943Z,22.35
2022-08-03T21:31:25.256Z,22.46
2022-08-03T21:33:57.087Z,22.40
2022-08-03T21:36:26.368Z,22.26
2022-08-03T21:38:56.597Z,22.22
2022-08-03T21:41:25.154Z,22.20
2022-08-03T21:43:51.690Z,22.00
2022-08-03T21:46:19.982Z,21.96
2022-08-03T21:48:54.522Z,21.89
2022-08-03T21:51:25.030Z,21.94
2022-08-03T21:54:03.838Z,21.78
2022-08-03T21:56:41.639Z,21.80
2022-08-03T21:59:16.033Z,21.72
2022-08-03T22:01:45.521Z,21.78
2022-08-03T22:04:50.817Z,21.93
2022-08-03T22:07:04.384Z,21.54
2022-08-03T22:09:31.275Z,21.47
2022-08-03T22:11:57.748Z,21.53
2022-08-03T22:14:25.638Z,21.67
2022-08-03T22:16:54.285Z,21.61
2022-08-03T22:19:21.204Z,21.45
2022-08-03T22:21:50.694Z,21.28
2022-08-03T22:24:24.033Z,21.45
2022-08-03T22:27:09.636Z,21.35
2022-08-03T22:29:38.317Z,21.39
2022-08-03T22:32:04.959Z,21.07
2022-08-03T22:34:31.632Z,21.29
2022-08-03T22:37:04.805Z,21.24
2022-08-03T22:39:32.189Z,21.16
2022-08-03T22:41:59.309Z,21.17
2022-08-03T22:44:27.096Z,21.25
2022-08-03T22:46:53.773Z,21.13
2022-08-03T22:49:20.772Z,20.96
2022-08-03T22:51:47.428Z,21.08
2022-08-03T22:54:14.427Z,20.86
2022-08-03T22:56:41.338Z,20.86
2022-08-03T22:59:39.141Z,20.75
2022-08-03T23:02:02.438Z,20.65
2022-08-03T23:04:44.432Z,20.74
2022-08-03T23:07:15.059Z,20.52
2022-08-03T23:09:45.061Z,20.55
2022-08-03T23:12:16.903Z,20.55
2022-08-03T23:14:51.763Z,20.59
2022-08-03T23:17:20.329Z,20.54
2022-08-03T23:19:47.269Z,20.46
2022-08-03T23:22:29.492Z,20.34
2022-08-03T23:24:57.507Z,20.43
2022-08-03T23:27:24.677Z,20.17
2022-08-03T23:29:52.383Z,20.15
2022-08-03T23:32:25.496Z,20.07
2022-08-03T23:35:14.640Z,19.87
2022-08-03T23:38:04.117Z,19.97
2022-08-03T23:40:31.293Z,19.97
2022-08-03T23:42:58.292Z,20.01
2022-08-03T23:45:27.764Z,19.91
2022-08-03T23:47:54.358Z,19.79
2022-08-03T23:50:21.084Z,19.94
2022-08-03T23:53:16.933Z,19.92
2022-08-03T23:56:03.482Z,19.76
2022-08-03T23:59:00.060Z,19.77
